Time;durP1;ratioP1;P1;durP2;ratioP2;P2;SDS_P1;SDS_P2;PMS_P1;PMS_P2;Temp;Humidity;BMP_temperature;BMP_pressure;BME280_temperature;BME280_humidity;BME280_pressure;Samples;Min_cycle;Max_cycle;Signal;HPM_P1;HPM_P2
2021/12/10 00:00:34;;;;;;;3.97;1.77;;;;;;;1.23;100.00;97732.72;5141291;27;20073;-79
2021/12/10 00:03:03;;;;;;;3.63;1.58;;;;;;;1.18;100.00;97749.25;5149271;27;20046;-79
2021/12/10 00:05:34;;;;;;;2.08;1.38;;;;;;;1.21;100.00;97751.63;5144153;27;20431;-79
2021/12/10 00:08:01;;;;;;;6.72;1.50;;;;;;;1.22;100.00;97753.31;5133167;27;20046;-79
2021/12/10 00:10:33;;;;;;;8.77;2.10;;;;;;;1.14;100.00;97739.03;5140423;27;20099;-79
2021/12/10 00:13:02;;;;;;;6.18;1.50;;;;;;;1.05;100.00;97730.97;5141935;27;20042;-79
2021/12/10 00:15:31;;;;;;;13.60;1.83;;;;;;;1.12;100.00;97747.22;5149280;27;20103;-80
2021/12/10 00:18:00;;;;;;;2.38;1.30;;;;;;;0.93;100.00;97726.88;5133095;27;20055;-79
2021/12/10 00:20:31;;;;;;;6.78;1.63;;;;;;;0.99;100.00;97730.75;5147922;27;20478;-79
2021/12/10 00:23:01;;;;;;;9.52;2.15;;;;;;;0.95;100.00;97722.22;5152196;27;20047;-79
2021/12/10 00:25:35;;;;;;;;;;;;;;;0.96;100.00;97728.41;5138100;27;20043;-79
2021/12/10 00:28:13;;;;;;;7.95;1.77;;;;;;;0.90;100.00;97708.47;5132288;27;20005;-79
2021/12/10 00:30:55;;;;;;;7.45;1.88;;;;;;;0.92;100.00;97708.31;5137524;27;20059;-79
2021/12/10 00:33:25;;;;;;;5.65;1.50;;;;;;;0.88;100.00;97702.44;5133431;27;20134;-80
2021/12/10 00:35:53;;;;;;;4.00;1.90;;;;;;;0.81;100.00;97712.09;5138116;27;20055;-80
2021/12/10 00:38:21;;;;;;;2.88;1.20;;;;;;;0.87;100.00;97692.75;5136531;27;20517;-80
2021/12/10 00:40:48;;;;;;;9.23;1.63;;;;;;;0.64;100.00;97677.22;5142354;27;20035;-79
2021/12/10 00:43:16;;;;;;;5.80;1.70;;;;;;;0.74;100.00;97674.47;5139775;27;20053;-79
2021/12/10 00:45:43;;;;;;;8.80;1.88;;;;;;;0.65;100.00;97662.03;5144010;27;20046;-79
2021/12/10 00:48:10;;;;;;;5.95;1.65;;;;;;;0.66;100.00;97669.91;5132458;27;20067;-80
2021/12/10 00:50:40;;;;;;;8.02;2.08;;;;;;;0.70;100.00;97663.22;5136375;27;20070;-79
2021/12/10 00:53:10;;;;;;;6.82;1.65;;;;;;;0.64;100.00;97671.88;5139318;27;20043;-79
2021/12/10 00:55:37;;;;;;;4.70;1.70;;;;;;;0.77;100.00;97681.31;5145327;27;20047;-79
2021/12/10 00:58:07;;;;;;;9.05;2.00;;;;;;;0.71;100.00;97669.44;5143957;27;20054;-79
2021/12/10 01:00:40;;;;;;;;;;;;;;;0.60;100.00;97661.66;5139329;27;20035;-79
2021/12/10 01:03:10;;;;;;;8.05;1.88;;;;;;;0.52;100.00;97630.38;5137376;27;19919;-79
2021/12/10 01:05:39;;;;;;;5.90;1.92;;;;;;;0.46;100.00;97639.03;5139923;27;20053;-79
2021/12/10 01:08:06;;;;;;;10.82;2.10;;;;;;;0.40;100.00;97635.16;5141681;27;20058;-79
2021/12/10 01:10:40;;;;;;;8.98;1.73;;;;;;;0.61;100.00;97652.66;5136872;27;20043;-79
2021/12/10 01:13:12;;;;;;;2.10;1.30;;;;;;;0.49;100.00;97652.09;5138252;27;20053;-79
2021/12/10 01:15:55;;;;;;;2.28;1.48;;;;;;;0.45;100.00;97646.22;5138084;27;20467;-79
2021/12/10 01:23:59;;;;;;;4.00;1.55;;;;;;;0.31;100.00;97628.06;5140626;27;20410;-79
2021/12/10 01:26:55;;;;;;;5.70;1.67;;;;;;;0.19;100.00;97610.63;5142174;27;20077;-79
2021/12/10 01:29:26;;;;;;;6.53;1.60;;;;;;;0.01;100.00;97606.16;5147130;27;20058;-79
2021/12/10 01:31:56;;;;;;;7.03;1.80;;;;;;;0.07;100.00;97620.75;5136583;27;20092;-79
2021/12/10 01:34:23;;;;;;;5.45;1.52;;;;;;;-0.12;100.00;97609.25;5150449;27;20103;-79
2021/12/10 01:36:51;;;;;;;6.20;2.00;;;;;;;-0.20;100.00;97588.66;5133464;27;20035;-79
2021/12/10 01:39:21;;;;;;;2.47;1.50;;;;;;;-0.17;100.00;97605.38;5134621;27;20047;-79
2021/12/10 01:41:55;;;;;;;2.40;1.50;;;;;;;-0.31;100.00;97596.09;5135098;27;20059;-79
2021/12/10 01:44:28;;;;;;;6.32;2.05;;;;;;;-0.29;100.00;97596.75;5136814;27;20051;-79
2021/12/10 01:46:58;;;;;;;4.85;1.63;;;;;;;-0.39;100.00;97589.69;5141785;27;20493;-79
2021/12/10 01:49:25;;;;;;;5.85;1.55;;;;;;;-0.43;100.00;97580.28;5142604;27;20035;-79
2021/12/10 01:51:54;;;;;;;4.15;1.42;;;;;;;-0.43;100.00;97584.81;5149799;27;20448;-80
2021/12/10 01:54:25;;;;;;;5.38;3.10;;;;;;;-0.56;100.00;97561.16;5145433;27;20066;-79
2021/12/10 01:56:55;;;;;;;5.28;2.42;;;;;;;-0.47;100.00;97576.25;5144483;27;20498;-79
2021/12/10 01:59:22;;;;;;;8.57;1.65;;;;;;;-0.53;100.00;97568.84;5142783;27;20050;-79
2021/12/10 02:01:53;;;;;;;8.82;1.70;;;;;;;-0.63;100.00;97533.38;5140571;27;20372;-79
2021/12/10 02:04:25;;;;;;;5.43;2.13;;;;;;;-0.61;100.00;97542.09;5135604;27;20043;-79
2021/12/10 02:06:54;;;;;;;3.72;1.50;;;;;;;-0.62;100.00;97524.41;5137660;27;20050;-79
2021/12/10 02:09:21;;;;;;;4.50;1.60;;;;;;;-0.72;100.00;97517.31;5136256;27;20127;-79
2021/12/10 02:11:48;;;;;;;5.03;2.30;;;;;;;-0.65;100.00;97536.22;5143716;27;20448;-79
2021/12/10 02:14:15;;;;;;;2.28;1.45;;;;;;;-0.79;100.00;97516.25;5147843;27;20439;-79
2021/12/10 02:16:43;;;;;;;8.10;1.90;;;;;;;-0.69;100.00;97526.88;5143446;27;20047;-79
2021/12/10 02:19:14;;;;;;;11.37;2.27;;;;;;;-0.64;100.00;97507.72;5143088;27;20047;-79
2021/12/10 02:21:42;;;;;;;2.10;1.63;;;;;;;-0.80;100.00;97506.59;5149106;27;20087;-78
2021/12/10 02:24:12;;;;;;;2.33;1.70;;;;;;;-0.84;100.00;97497.22;5143366;27;20042;-78
2021/12/10 02:26:42;;;;;;;3.08;1.50;;;;;;;-0.86;100.00;97480.50;5139001;27;20051;-78
2021/12/10 02:29:09;;;;;;;4.35;1.67;;;;;;;-0.86;100.00;97491.16;5144688;27;20054;-79
2021/12/10 02:31:37;;;;;;;6.10;1.52;;;;;;;-0.85;100.00;97489.38;5149009;27;20126;-79
2021/12/10 02:34:04;;;;;;;5.33;1.70;;;;;;;-0.92;100.00;97478.44;5135579;27;20474;-78
2021/12/10 02:36:32;;;;;;;3.30;1.83;;;;;;;-0.91;100.00;97480.97;5141772;27;20043;-79
2021/12/10 02:39:00;;;;;;;5.40;1.73;;;;;;;-0.88;100.00;97477.16;5134870;27;20444;-79
2021/12/10 02:41:29;;;;;;;6.38;1.65;;;;;;;-0.90;100.00;97471.16;5140288;27;20770;-79
2021/12/10 02:43:57;;;;;;;2.50;1.42;;;;;;;-1.02;100.00;97451.88;5137007;27;20100;-79
2021/12/10 02:46:24;;;;;;;1.85;1.50;;;;;;;-0.96;100.00;97455.75;5136152;27;20051;-79
2021/12/10 02:48:51;;;;;;;1.88;1.10;;;;;;;-0.96;100.00;97458.44;5142409;27;20050;-79
2021/12/10 02:51:18;;;;;;;8.30;1.70;;;;;;;-1.08;100.00;97447.97;5146138;27;20046;-79
2021/12/10 02:53:46;;;;;;;3.42;1.60;;;;;;;-1.05;100.00;97436.19;5150727;27;20047;-79
2021/12/10 02:56:19;;;;;;;5.70;1.35;;;;;;;-1.13;100.00;97420.94;5144271;27;20078;-79
2021/12/10 02:58:48;;;;;;;2.00;1.50;;;;;;;-1.08;100.00;97421.31;5144862;27;20047;-79
2021/12/10 03:01:20;;;;;;;7.35;1.65;;;;;;;-0.92;100.00;97403.75;5142093;27;20049;-78
2021/12/10 03:03:47;;;;;;;8.60;2.10;;;;;;;-0.84;100.00;97406.50;5138039;27;20035;-78
2021/12/10 03:06:15;;;;;;;6.10;1.80;;;;;;;-0.86;100.00;97396.97;5154112;27;20046;-78
2021/12/10 03:08:45;;;;;;;4.30;1.97;;;;;;;-0.99;100.00;97397.38;5146665;27;20050;-79
2021/12/10 03:11:15;;;;;;;2.90;1.52;;;;;;;-1.08;100.00;97399.16;5138457;27;20047;-78
2021/12/10 03:13:43;;;;;;;4.55;1.63;;;;;;;-1.08;100.00;97394.63;5140608;27;20412;-79
2021/12/10 03:16:10;;;;;;;6.13;1.47;;;;;;;-1.10;100.00;97393.13;5136792;27;20543;-79
2021/12/10 03:18:38;;;;;;;4.67;2.03;;;;;;;-1.09;100.00;97389.47;5145822;27;20068;-79
2021/12/10 03:21:08;;;;;;;2.17;1.40;;;;;;;-1.30;100.00;97373.78;5141065;27;20608;-79
2021/12/10 03:23:36;;;;;;;3.93;1.77;;;;;;;-1.34;100.00;97381.28;5142701;27;20047;-79
2021/12/10 03:26:04;;;;;;;4.95;1.42;;;;;;;-1.43;100.00;97368.84;5144329;27;20054;-79
2021/12/10 03:28:32;;;;;;;3.63;1.67;;;;;;;-1.45;100.00;97357.50;5144989;27;20229;-79
2021/12/10 03:30:59;;;;;;;5.80;1.90;;;;;;;-1.37;100.00;97386.06;5145759;27;20446;-79
2021/12/10 03:33:26;;;;;;;6.47;1.70;;;;;;;-1.47;100.00;97359.50;5144051;27;20047;-78
2021/12/10 03:35:52;;;;;;;2.77;1.37;;;;;;;-1.46;100.00;97364.69;5134643;27;20062;-79
2021/12/10 03:38:22;;;;;;;1.58;1.30;;;;;;;-1.46;100.00;97367.34;5144076;27;20050;-79
2021/12/10 03:40:50;;;;;;;3.60;1.50;;;;;;;-1.39;100.00;97380.06;5142296;27;20054;-79
2021/12/10 03:43:19;;;;;;;3.97;2.33;;;;;;;-1.43;100.00;97380.38;5138574;27;20514;-79
2021/12/10 03:45:51;;;;;;;8.00;1.37;;;;;;;-1.55;100.00;97362.94;5152068;27;20050;-79
2021/12/10 03:48:21;;;;;;;3.63;1.40;;;;;;;-1.51;100.00;97358.13;5137001;27;20046;-79
2021/12/10 03:50:49;;;;;;;7.30;1.95;;;;;;;-1.35;100.00;97341.44;5135009;27;20050;-79
2021/12/10 03:53:17;;;;;;;4.43;1.30;;;;;;;-1.43;100.00;97348.38;5144733;27;20104;-79
2021/12/10 03:55:46;;;;;;;3.43;1.73;;;;;;;-1.48;100.00;97349.81;5138445;27;20401;-79
2021/12/10 03:58:13;;;;;;;8.10;1.33;;;;;;;-1.49;100.00;97356.13;5133396;27;20444;-78
2021/12/10 04:00:42;;;;;;;4.47;1.97;;;;;;;-1.34;100.00;97351.09;5134484;27;20391;-78
2021/12/10 04:03:11;;;;;;;4.32;1.60;;;;;;;-1.27;100.00;97338.81;5147805;27;20046;-79
2021/12/10 04:05:39;;;;;;;2.07;1.47;;;;;;;-1.29;100.00;97330.16;5141082;27;20069;-79
2021/12/10 04:08:07;;;;;;;4.50;1.77;;;;;;;-1.28;100.00;97324.66;5142844;27;20802;-79
2021/12/10 04:10:34;;;;;;;6.40;2.17;;;;;;;-1.17;100.00;97325.41;5148101;27;20038;-79
2021/12/10 04:13:01;;;;;;;5.30;2.17;;;;;;;-1.21;100.00;97313.38;5138200;27;20382;-79
2021/12/10 04:15:28;;;;;;;8.40;2.10;;;;;;;-1.12;100.00;97310.59;5135794;27;20050;-79
2021/12/10 04:17:57;;;;;;;5.30;2.03;;;;;;;-1.35;100.00;97286.28;5147660;27;20062;-79
2021/12/10 04:20:29;;;;;;;5.67;2.00;;;;;;;-1.21;100.00;97284.88;5148499;27;20442;-79
2021/12/10 04:22:56;;;;;;;8.97;2.27;;;;;;;-1.27;100.00;97275.66;5145539;27;20238;-79
2021/12/10 04:25:25;;;;;;;4.70;2.03;;;;;;;-1.31;100.00;97271.66;5135811;27;20054;-79
2021/12/10 04:27:55;;;;;;;3.85;2.33;;;;;;;-1.35;100.00;97272.94;5133215;27;20078;-79
2021/12/10 04:30:22;;;;;;;4.80;1.90;;;;;;;-1.37;100.00;97266.97;5132635;27;20050;-79
2021/12/10 04:32:49;;;;;;;7.30;1.93;;;;;;;-1.34;100.00;97274.63;5137321;27;20454;-79
2021/12/10 04:35:18;;;;;;;6.77;2.57;;;;;;;-1.35;100.00;97261.47;5132976;27;20100;-79
2021/12/10 04:37:49;;;;;;;6.77;2.47;;;;;;;-1.12;100.00;97269.75;5145826;27;20047;-79
2021/12/10 04:40:20;;;;;;;7.57;3.30;;;;;;;-1.12;100.00;97251.09;5134010;27;20050;-79
2021/12/10 04:42:47;;;;;;;6.07;2.40;;;;;;;-1.27;100.00;97243.66;5134775;27;20078;-79
2021/12/10 04:45:16;;;;;;;5.33;2.20;;;;;;;-1.18;100.00;97247.22;5148083;27;20406;-79
2021/12/10 04:47:43;;;;;;;5.53;2.63;;;;;;;-1.30;100.00;97243.97;5132445;27;20490;-79
2021/12/10 04:50:13;;;;;;;4.83;2.33;;;;;;;-1.16;100.00;97255.06;5138192;27;20047;-79
2021/12/10 04:52:40;;;;;;;4.53;2.13;;;;;;;-1.28;100.00;97257.16;5141840;27;20047;-78
2021/12/10 04:55:11;;;;;;;2.80;2.27;;;;;;;-1.33;100.00;97236.31;5138305;27;20062;-82
2021/12/10 04:57:38;;;;;;;4.23;2.33;;;;;;;-1.36;100.00;97227.78;5138658;27;20051;-81
2021/12/10 05:00:08;;;;;;;9.07;2.33;;;;;;;-1.31;100.00;97230.81;5133166;27;20486;-80
2021/12/10 05:02:36;;;;;;;4.40;2.83;;;;;;;-1.35;100.00;97227.63;5137059;27;20052;-80
2021/12/10 05:05:11;;;;;;;4.67;2.30;;;;;;;-1.19;100.00;97232.25;5142451;27;20077;-81
2021/12/10 05:07:38;;;;;;;6.20;2.00;;;;;;;-1.30;100.00;97232.50;5133147;27;20066;-81
2021/12/10 05:10:11;;;;;;;7.10;2.10;;;;;;;-1.39;100.00;97209.44;5147944;27;20050;-81
2021/12/10 05:12:42;;;;;;;9.53;2.13;;;;;;;-1.41;100.00;97224.78;5142714;27;20043;-80
2021/12/10 05:15:18;;;;;;;8.13;2.50;;;;;;;-1.44;100.00;97228.59;5134258;27;20133;-81
2021/12/10 05:17:49;;;;;;;5.60;2.90;;;;;;;-1.45;100.00;97222.41;5132688;27;20043;-81
2021/12/10 05:20:30;;;;;;;8.40;2.80;;;;;;;-1.49;100.00;97217.53;5139958;27;20452;-81
2021/12/10 05:22:58;;;;;;;7.27;2.37;;;;;;;-1.56;100.00;97198.69;5136382;27;20043;-81
2021/12/10 05:25:29;;;;;;;6.00;2.70;;;;;;;-1.55;100.00;97189.72;5143010;27;20478;-80
2021/12/10 05:27:58;;;;;;;4.53;2.47;;;;;;;-1.51;100.00;97203.53;5136303;27;20047;-81
2021/12/10 05:30:29;;;;;;;3.73;2.33;;;;;;;-1.57;100.00;97177.53;5147845;27;20087;-81
2021/12/10 05:32:57;;;;;;;4.53;2.50;;;;;;;-1.46;100.00;97206.56;5140638;27;20438;-82
2021/12/10 05:35:25;;;;;;;4.37;2.17;;;;;;;-1.58;100.00;97192.69;5145545;27;20047;-81
2021/12/10 05:37:52;;;;;;;3.87;2.43;;;;;;;-1.45;100.00;97202.91;5145402;27;20123;-81
2021/12/10 05:40:19;;;;;;;7.37;2.50;;;;;;;-1.52;100.00;97192.06;5146994;27;20126;-81
2021/12/10 05:42:48;;;;;;;8.57;2.60;;;;;;;-1.53;100.00;97170.91;5135488;27;20043;-81
2021/12/10 05:45:17;;;;;;;3.87;2.70;;;;;;;-1.61;100.00;97179.69;5141384;27;20058;-80
2021/12/10 05:47:44;;;;;;;5.57;2.40;;;;;;;-1.61;100.00;97187.66;5142634;27;20038;-81
2021/12/10 05:50:23;;;;;;;8.23;3.03;;;;;;;-1.62;100.00;97165.50;5139329;27;20043;-81
2021/12/10 05:52:50;;;;;;;6.13;2.50;;;;;;;-1.50;100.00;97178.56;5144547;27;20047;-81
2021/12/10 05:55:18;;;;;;;6.47;2.70;;;;;;;-1.58;100.00;97168.69;5140900;27;20632;-81
2021/12/10 05:57:45;;;;;;;9.77;2.50;;;;;;;-1.71;100.00;97166.44;5141126;27;20236;-82
2021/12/10 06:00:21;;;;;;;4.30;2.60;;;;;;;-1.73;100.00;97143.59;5139443;27;20379;-81
2021/12/10 06:02:53;;;;;;;4.00;2.40;;;;;;;-1.71;100.00;97168.28;5151602;27;20043;-82
2021/12/10 06:05:20;;;;;;;5.40;2.20;;;;;;;-1.84;100.00;97150.03;5136878;27;20074;-82
2021/12/10 06:07:47;;;;;;;7.10;2.97;;;;;;;-1.87;100.00;97153.84;5136201;27;20047;-83
2021/12/10 06:10:17;;;;;;;7.17;3.30;;;;;;;-1.84;100.00;97172.16;5139179;27;20363;-80
2021/12/10 06:12:45;;;;;;;4.80;2.85;;;;;;;-1.90;100.00;97163.97;5144510;27;20049;-80
2021/12/10 06:15:17;;;;;;;11.47;3.70;;;;;;;-1.91;100.00;97170.28;5145128;27;20462;-80
2021/12/10 06:17:44;;;;;;;11.97;3.33;;;;;;;-1.97;100.00;97161.13;5142055;27;20475;-81
2021/12/10 06:20:14;;;;;;;9.90;2.93;;;;;;;-2.00;100.00;97150.78;5151620;27;20413;-81
2021/12/10 06:22:41;;;;;;;8.52;3.88;;;;;;;-1.98;100.00;97160.25;5136443;27;20375;-81
2021/12/10 06:25:09;;;;;;;10.10;4.07;;;;;;;-2.10;100.00;97134.06;5140204;27;20043;-81
2021/12/10 06:27:38;;;;;;;8.60;3.80;;;;;;;-1.90;100.00;97140.84;5148031;27;20042;-81
2021/12/10 06:30:07;;;;;;;16.58;3.80;;;;;;;-1.83;100.00;97138.41;5138620;27;20043;-81
2021/12/10 06:32:35;;;;;;;8.97;4.13;;;;;;;-1.78;100.00;97114.78;5142705;27;20407;-81
2021/12/10 06:35:02;;;;;;;8.47;3.20;;;;;;;-1.80;100.00;97111.44;5139717;27;20497;-81
2021/12/10 06:37:29;;;;;;;8.93;4.40;;;;;;;-1.82;100.00;97106.28;5143073;27;20070;-81
2021/12/10 06:39:56;;;;;;;8.17;3.93;;;;;;;-1.84;100.00;97094.09;5141806;27;20111;-81
2021/12/10 06:42:22;;;;;;;10.13;4.50;;;;;;;-1.70;100.00;97103.31;5139369;27;20039;-81
2021/12/10 06:44:52;;;;;;;8.87;3.63;;;;;;;-1.81;100.00;97094.63;5145248;27;20050;-81
2021/12/10 06:47:19;;;;;;;7.53;4.10;;;;;;;-1.78;100.00;97074.81;5137450;27;20130;-81
2021/12/10 06:49:48;;;;;;;9.43;4.17;;;;;;;-1.74;100.00;97083.34;5136498;27;20051;-82
2021/12/10 06:52:15;;;;;;;9.50;3.90;;;;;;;-1.79;100.00;97066.00;5156472;27;20059;-82
2021/12/10 06:54:42;;;;;;;9.00;4.17;;;;;;;-1.89;100.00;97054.63;5161894;27;20129;-82
2021/12/10 06:57:08;;;;;;;13.10;4.40;;;;;;;-1.89;100.00;97067.94;5151549;27;20116;-81
2021/12/10 06:59:35;;;;;;;9.53;4.50;;;;;;;-1.97;100.00;97047.44;5152704;27;20051;-81
2021/12/10 07:02:03;;;;;;;9.40;5.50;;;;;;;-1.77;100.00;97059.69;5153035;27;20047;-82
2021/12/10 07:04:30;;;;;;;14.70;5.27;;;;;;;-1.85;100.00;97033.81;5149829;27;20047;-81
2021/12/10 07:06:58;;;;;;;11.80;4.77;;;;;;;-1.81;100.00;97017.38;5141545;27;20051;-81
2021/12/10 07:09:26;;;;;;;10.87;5.50;;;;;;;-1.74;100.00;97014.91;5136098;27;20051;-81
2021/12/10 07:11:55;;;;;;;10.93;5.63;;;;;;;-1.67;100.00;97020.41;5139937;27;20081;-82
2021/12/10 07:14:23;;;;;;;12.60;5.53;;;;;;;-1.66;100.00;97019.44;5154549;27;20050;-81
2021/12/10 07:16:50;;;;;;;12.00;5.30;;;;;;;-1.63;100.00;97019.09;5137124;27;20035;-81
2021/12/10 07:19:17;;;;;;;12.40;5.47;;;;;;;-1.56;100.00;97036.13;5134547;27;20047;-81
2021/12/10 07:21:45;;;;;;;12.73;5.20;;;;;;;-1.61;100.00;97041.13;5134142;27;20078;-81
2021/12/10 07:24:17;;;;;;;11.37;5.30;;;;;;;-1.66;100.00;97003.44;5140327;27;20074;-81
2021/12/10 07:26:45;;;;;;;10.80;4.90;;;;;;;-1.65;100.00;96994.47;5135630;27;20502;-82
2021/12/10 07:29:12;;;;;;;8.43;5.20;;;;;;;-1.57;100.00;96985.66;5145366;27;20062;-81
2021/12/10 07:31:40;;;;;;;10.43;5.70;;;;;;;-1.46;100.00;96996.84;5154190;27;20099;-81
2021/12/10 07:34:07;;;;;;;12.13;5.80;;;;;;;-1.36;100.00;96986.03;5135922;27;20406;-81
2021/12/10 07:36:35;;;;;;;11.80;5.43;;;;;;;-1.35;100.00;96963.72;5134128;27;20054;-81
2021/12/10 07:39:03;;;;;;;16.23;4.63;;;;;;;-1.34;100.00;96976.06;5134012;27;20132;-81
2021/12/10 07:41:32;;;;;;;10.73;5.07;;;;;;;-1.29;100.00;96978.25;5132955;27;20103;-81
2021/12/10 07:43:59;;;;;;;15.47;5.83;;;;;;;-1.36;100.00;96947.91;5134984;27;20066;-81
2021/12/10 07:46:28;;;;;;;9.50;5.13;;;;;;;-1.39;100.00;96964.22;5141001;27;20073;-81
2021/12/10 07:48:56;;;;;;;10.82;5.32;;;;;;;-1.26;100.00;96968.06;5133931;27;20135;-81
2021/12/10 07:51:27;;;;;;;9.17;5.60;;;;;;;-1.41;100.00;96955.56;5133116;27;20046;-81
2021/12/10 07:53:57;;;;;;;8.57;5.53;;;;;;;-1.38;100.00;96963.22;5133684;27;20047;-81
2021/12/10 07:56:25;;;;;;;12.67;5.80;;;;;;;-1.22;100.00;96981.91;5148221;27;20370;-81
2021/12/10 07:58:54;;;;;;;15.50;5.70;;;;;;;-1.17;100.00;96994.75;5140507;27;20038;-82
2021/12/10 08:01:25;;;;;;;12.95;5.55;;;;;;;-1.15;100.00;96974.91;5145329;27;20050;-81
2021/12/10 08:03:53;;;;;;;12.17;6.23;;;;;;;-1.12;100.00;96979.91;5139222;27;20127;-81
2021/12/10 08:06:21;;;;;;;16.57;6.80;;;;;;;-1.12;100.00;96957.75;5134570;27;20099;-80
2021/12/10 08:08:49;;;;;;;16.67;6.47;;;;;;;-1.09;100.00;96952.91;5145048;27;20039;-80
2021/12/10 08:11:17;;;;;;;23.13;7.30;;;;;;;-0.97;100.00;96955.28;5137357;27;20050;-81
2021/12/10 08:13:44;;;;;;;11.10;5.17;;;;;;;-0.92;100.00;96944.94;5148050;27;20402;-81
2021/12/10 08:16:12;;;;;;;12.40;5.80;;;;;;;-0.81;100.00;96938.41;5142754;27;20051;-80
2021/12/10 08:18:39;;;;;;;12.13;4.87;;;;;;;-0.97;100.00;96928.59;5150238;27;20049;-80
2021/12/10 08:21:07;;;;;;;11.73;4.93;;;;;;;-0.85;100.00;96935.25;5138283;27;20051;-80
2021/12/10 08:23:34;;;;;;;9.73;4.47;;;;;;;-0.93;100.00;96912.09;5136192;27;20039;-80
2021/12/10 08:26:02;;;;;;;8.20;4.90;;;;;;;-1.00;100.00;96935.09;5140373;27;20398;-80
2021/12/10 08:28:32;;;;;;;9.90;5.20;;;;;;;-0.93;100.00;96944.09;5137654;27;20039;-81
2021/12/10 08:30:59;;;;;;;;;;;;;;;-0.86;100.00;96954.09;5136686;27;20039;-80
2021/12/10 08:33:27;;;;;;;11.80;4.43;;;;;;;-0.89;100.00;96933.91;5143135;27;19934;-80
2021/12/10 08:36:01;;;;;;;12.43;5.17;;;;;;;-0.83;100.00;96930.56;5138258;27;20053;-81
2021/12/10 08:38:29;;;;;;;12.60;4.63;;;;;;;-0.66;100.00;96941.22;5132664;27;20055;-80
2021/12/10 08:40:59;;;;;;;9.40;5.40;;;;;;;-0.75;100.00;96933.25;5143525;27;20051;-80
2021/12/10 08:43:27;;;;;;;9.57;5.33;;;;;;;-0.59;100.00;96950.25;5133110;27;20058;-81
2021/12/10 08:45:55;;;;;;;13.43;4.63;;;;;;;-0.64;100.00;96939.25;5142968;27;20047;-81
2021/12/10 08:48:23;;;;;;;6.37;4.40;;;;;;;-0.63;100.00;96927.56;5132652;27;20051;-81
2021/12/10 08:50:52;;;;;;;6.13;4.03;;;;;;;-0.46;100.00;96947.06;5136706;27;20054;-80
2021/12/10 08:53:22;;;;;;;11.70;3.50;;;;;;;-0.48;100.00;96955.25;5144251;27;20058;-81
2021/12/10 08:55:51;;;;;;;7.67;3.70;;;;;;;-0.39;100.00;96959.56;5137118;27;20050;-81
2021/12/10 08:58:19;;;;;;;7.15;3.75;;;;;;;-0.48;100.00;96941.91;5141803;27;20124;-81
2021/12/10 09:00:49;;;;;;;8.23;3.45;;;;;;;-0.35;100.00;96957.38;5136918;27;20051;-81
2021/12/10 09:03:16;;;;;;;;;;;;;;;-0.23;100.00;96961.34;5146906;27;20050;-81
2021/12/10 09:05:43;;;;;;;10.88;4.18;;;;;;;-0.20;100.00;96968.19;5155563;27;19923;-81
2021/12/10 09:08:12;;;;;;;9.80;4.53;;;;;;;-0.11;100.00;96961.00;5140777;27;20383;-80
2021/12/10 09:10:42;;;;;;;5.80;3.70;;;;;;;-0.25;100.00;96933.16;5136296;27;20070;-80
2021/12/10 09:13:14;;;;;;;7.47;3.80;;;;;;;-0.16;100.00;96966.03;5142286;27;20058;-80
2021/12/10 09:15:41;;;;;;;7.00;3.40;;;;;;;-0.22;100.00;96930.97;5137998;27;20046;-80
2021/12/10 09:18:09;;;;;;;7.40;3.30;;;;;;;-0.07;100.00;96951.66;5141292;27;20054;-80
2021/12/10 09:20:40;;;;;;;5.78;2.97;;;;;;;-0.05;100.00;96947.78;5149670;27;20296;-80
2021/12/10 09:23:11;;;;;;;9.30;3.85;;;;;;;-0.07;100.00;96930.28;5150229;27;20043;-80
2021/12/10 09:25:46;;;;;;;5.53;3.17;;;;;;;0.08;100.00;96941.06;5146465;27;20050;-80
2021/12/10 09:28:13;;;;;;;9.45;3.20;;;;;;;0.02;100.00;96915.06;5146515;27;20056;-80
2021/12/10 09:30:45;;;;;;;8.63;3.70;;;;;;;0.11;100.00;96930.03;5153659;27;20435;-81
2021/12/10 09:33:12;;;;;;;11.13;3.83;;;;;;;0.10;100.00;96926.50;5141371;27;20046;-80
2021/12/10 09:35:40;;;;;;;7.07;2.90;;;;;;;0.13;100.00;96915.47;5145270;27;20413;-81
2021/12/10 09:38:08;;;;;;;6.88;3.38;;;;;;;0.09;100.00;96911.50;5137581;27;20047;-81
2021/12/10 09:40:40;;;;;;;11.15;3.45;;;;;;;0.15;100.00;96916.16;5143053;27;20104;-81
2021/12/10 09:43:10;;;;;;;5.75;2.85;;;;;;;0.24;100.00;96916.09;5145094;27;20043;-81
2021/12/10 09:45:39;;;;;;;5.03;2.60;;;;;;;0.20;100.00;96904.09;5143391;27;20053;-81
2021/12/10 09:48:08;;;;;;;5.90;2.75;;;;;;;0.23;100.00;96903.78;5137840;27;20043;-81
2021/12/10 09:50:40;;;;;;;3.33;2.42;;;;;;;0.19;100.00;96886.41;5143372;27;20095;-81
2021/12/10 09:53:08;;;;;;;3.78;2.40;;;;;;;0.34;100.00;96904.19;5142083;27;20114;-81
2021/12/10 09:55:36;;;;;;;4.03;2.15;;;;;;;0.39;100.00;96898.31;5135903;27;20039;-81
2021/12/10 09:58:06;;;;;;;2.92;2.00;;;;;;;0.33;100.00;96897.19;5153549;27;20043;-81
2021/12/10 10:00:38;;;;;;;8.43;2.58;;;;;;;0.36;100.00;96904.00;5135514;27;20039;-81
2021/12/10 10:03:09;;;;;;;6.25;2.10;;;;;;;0.32;100.00;96884.81;5143834;27;20112;-81
2021/12/10 10:05:37;;;;;;;4.00;2.00;;;;;;;0.30;100.00;96883.31;5135269;27;20448;-81
2021/12/10 10:08:07;;;;;;;2.65;2.17;;;;;;;0.42;100.00;96884.63;5138453;27;20097;-81
2021/12/10 10:10:40;;;;;;;3.75;2.25;;;;;;;0.38;99.56;96853.03;5143594;27;20491;-81
2021/12/10 10:13:10;;;;;;;4.07;2.30;;;;;;;0.46;100.00;96850.31;5146874;27;20055;-81
2021/12/10 10:15:41;;;;;;;2.55;1.70;;;;;;;0.71;98.50;96848.31;5139722;27;20051;-81
2021/12/10 10:18:11;;;;;;;5.25;1.98;;;;;;;0.76;95.09;96850.44;5135475;27;20527;-81
2021/12/10 10:20:42;;;;;;;3.53;1.80;;;;;;;0.86;94.87;96856.38;5140334;27;20054;-81
2021/12/10 10:23:11;;;;;;;6.32;1.92;;;;;;;0.84;93.83;96839.66;5135265;27;20048;-81
2021/12/10 10:25:41;;;;;;;12.57;2.03;;;;;;;0.82;95.59;96839.03;5141355;27;20134;-81
2021/12/10 10:28:11;;;;;;;4.95;1.80;;;;;;;0.80;94.54;96830.31;5145959;27;20100;-81
2021/12/10 10:30:53;;;;;;;3.63;1.75;;;;;;;0.82;94.29;96833.66;5140873;27;20050;-82
2021/12/10 10:33:26;;;;;;;5.10;2.15;;;;;;;0.77;95.59;96809.28;5135471;27;20138;-82
2021/12/10 10:35:57;;;;;;;2.67;1.90;;;;;;;1.00;97.74;96811.94;5139870;27;20126;-82
2021/12/10 10:38:25;;;;;;;3.67;1.77;;;;;;;1.10;95.02;96819.69;5134611;27;20058;-81
2021/12/10 10:40:56;;;;;;;2.20;1.58;;;;;;;1.15;93.08;96804.75;5137925;27;20039;-82
2021/12/10 10:43:27;;;;;;;3.53;1.70;;;;;;;1.18;94.72;96799.03;5143925;27;20043;-82
2021/12/10 10:45:56;;;;;;;6.70;1.70;;;;;;;1.10;93.05;96801.81;5138041;27;20426;-81
2021/12/10 10:48:24;;;;;;;2.17;1.73;;;;;;;1.12;92.38;96805.13;5134816;27;20043;-82
2021/12/10 10:50:55;;;;;;;12.45;1.90;;;;;;;1.10;92.25;96800.97;5134641;27;20096;-82
2021/12/10 10:53:27;;;;;;;3.65;1.75;;;;;;;1.17;93.70;96793.88;5138056;27;20047;-82
2021/12/10 10:55:57;;;;;;;4.75;1.58;;;;;;;1.22;91.38;96792.31;5135720;27;20096;-82
2021/12/10 10:58:30;;;;;;;;;;;;;;;1.32;89.40;96778.63;5140018;27;20047;-82
2021/12/10 11:01:03;;;;;;;2.67;1.30;;;;;;;1.32;86.02;96759.91;5137903;27;19925;-81
2021/12/10 11:03:38;;;;;;;2.95;1.40;;;;;;;1.36;84.59;96758.50;5145855;27;20050;-81
2021/12/10 11:06:07;;;;;;;1.25;1.00;;;;;;;1.41;82.14;96771.34;5141564;27;20566;-81
2021/12/10 11:08:38;;;;;;;7.25;1.48;;;;;;;1.29;84.01;96741.53;5153924;27;20055;-81
2021/12/10 11:11:15;;;;;;;2.15;1.23;;;;;;;1.46;84.72;96757.41;5136728;27;20051;-81
2021/12/10 11:13:48;;;;;;;4.13;1.33;;;;;;;1.50;83.15;96764.03;5134696;27;20062;-81
2021/12/10 11:16:18;;;;;;;3.50;1.10;;;;;;;1.41;84.47;96749.94;5134350;27;20509;-81
2021/12/10 11:18:49;;;;;;;;;;;;;;;1.51;85.41;96760.38;5144715;27;20042;-81
2021/12/10 11:21:18;;;;;;;2.47;1.20;;;;;;;1.42;87.75;96741.69;5139753;27;19923;-81
2021/12/10 11:23:45;;;;;;;6.32;1.60;;;;;;;1.54;88.59;96750.09;5141992;27;20051;-81
2021/12/10 11:26:12;;;;;;;3.83;1.17;;;;;;;1.57;88.77;96746.22;5141657;27;20075;-81
2021/12/10 11:28:41;;;;;;;2.10;1.48;;;;;;;1.66;88.05;96750.44;5142877;27;20046;-81
2021/12/10 11:31:13;;;;;;;5.50;1.65;;;;;;;1.89;86.14;96755.66;5145804;27;20092;-81
2021/12/10 11:33:42;;;;;;;3.40;1.30;;;;;;;1.70;89.11;96745.53;5146447;27;20050;-81
2021/12/10 11:36:12;;;;;;;1.88;1.38;;;;;;;1.85;90.29;96773.16;5134066;27;20046;-81
2021/12/10 11:38:45;;;;;;;5.03;1.52;;;;;;;1.79;88.54;96748.94;5139360;27;20434;-81
2021/12/10 11:41:15;;;;;;;4.25;1.45;;;;;;;1.84;89.27;96767.97;5132808;27;20142;-81
2021/12/10 11:43:56;;;;;;;2.95;1.33;;;;;;;1.99;84.72;96759.88;5146177;27;20050;-81